Noxon, MT (59853)

12:51 PM MDT on May 05, 2015 (GMT -0600)
MesoWest | | Change Station
CLOSE
Current Station
Personal Weather Station
Location: Libby, MT
Elevation: 3798 ft
Nearby Weather Stations

Elev 3798 ft 48.12 °N, 115.42 °W | Updated 50 minutes ago

Overcast
Overcast
56 °F
Feels Like 56 °F
N
1
Wind Variable Wind from SE
Gusts 12.0 mph

Today
High -- | Low -- °F
--% Chance of Precip.
Yesterday
High -- | Low -- °F
Precip. -- in
6:18 AM 9:02 PM
Full, 97% visible
Pressure 29.92 in
Visibility 10.0 miles
Clouds Mostly Cloudy 6500 ft
Dew Point 29 °F
Humidity 35%
Rainfall in
Snow Depth Not available.
UV 5 out of 12
Pollen 9.50 out of 12
Air Quality Not available.
Flu Activity Local Activity
METAR KSZT 051835Z AUTO 19011G17KT 10SM BKN065 12/00 A2992 RMK AO2

More Conditions Fewer Conditions

Pressure 29.92 in
Visibility 10.0 miles
Clouds Mostly Cloudy 6500 ft
Dew Point 29 °F
Humidity 35%
Rainfall in
Snow Depth Not available.
UV 5 out of 12
Pollen 9.50 out of 12
Air Quality Not available.
Flu Activity Local Activity
METAR KSZT 051835Z AUTO 19011G17KT 10SM BKN065 12/00 A2992 RMK AO2

More Conditions Fewer Conditions

10-Day Weather Forecast

Almanac

Astronomy

May. 05, 2015 Rise Set
Actual Time
Civil Twilight
Nautical Twilight
Astronomical Twilight
Moon
Length of Visible Light
Length of Day
Tomorrow will be .
, % of the Moon is Illuminated

Today's Extremes

State Highs State Lows

Community

WunderPhotos

Upload Photos

1,818,953 photos uploaded!

WunderBlogs® & News

Nearby

Air Quality

  Air Quality AQ Index Pollutant
Not available.

Snow Depth

Station Depth Elevation

Earthquake Activity

City Distance Mag. Time & Date
Minimum magnitude displayed is 2.5.

Coastal Water Temperatures

Place Temperature

Stations

Nearby Weather Stations

Station Location Temp. Windchill Dew Point Humidity Wind Precip. Elev Updated Type